sensor_id;sensor_type;location;lat;lon;timestamp;pressure;altitude;pressure_sealevel;temperature
17142;BMP180;32805;53.556;9.944;2022-12-29T00:01:44;99830.00;;;8.60
17142;BMP180;32805;53.556;9.944;2022-12-29T00:04:13;99837.00;;;8.60
17142;BMP180;32805;53.556;9.944;2022-12-29T00:06:42;99821.00;;;8.70
17142;BMP180;32805;53.556;9.944;2022-12-29T00:09:12;99820.00;;;8.70
17142;BMP180;32805;53.556;9.944;2022-12-29T00:11:40;99837.00;;;8.70
17142;BMP180;32805;53.556;9.944;2022-12-29T00:14:08;99826.00;;;8.70
17142;BMP180;32805;53.556;9.944;2022-12-29T00:16:53;99800.00;;;8.70
17142;BMP180;32805;53.556;9.944;2022-12-29T00:19:21;99806.00;;;8.80
17142;BMP180;32805;53.556;9.944;2022-12-29T00:22:08;99811.00;;;8.90
17142;BMP180;32805;53.556;9.944;2022-12-29T00:24:56;99789.00;;;8.80
17142;BMP180;32805;53.556;9.944;2022-12-29T00:27:43;99800.00;;;8.80
17142;BMP180;32805;53.556;9.944;2022-12-29T00:30:33;99800.00;;;8.80
17142;BMP180;32805;53.556;9.944;2022-12-29T00:33:22;99796.00;;;8.90
17142;BMP180;32805;53.556;9.944;2022-12-29T00:36:13;99799.00;;;8.90
17142;BMP180;32805;53.556;9.944;2022-12-29T00:38:46;99785.00;;;8.90
17142;BMP180;32805;53.556;9.944;2022-12-29T00:41:34;99794.00;;;8.90
17142;BMP180;32805;53.556;9.944;2022-12-29T00:44:19;99789.00;;;8.90
17142;BMP180;32805;53.556;9.944;2022-12-29T00:46:47;99787.00;;;8.90
17142;BMP180;32805;53.556;9.944;2022-12-29T00:49:15;99796.00;;;8.90
17142;BMP180;32805;53.556;9.944;2022-12-29T00:51:59;99780.00;;;8.90
17142;BMP180;32805;53.556;9.944;2022-12-29T00:54:28;99774.00;;;9.00
17142;BMP180;32805;53.556;9.944;2022-12-29T00:56:57;99788.00;;;9.00
17142;BMP180;32805;53.556;9.944;2022-12-29T00:59:25;99777.00;;;9.00
17142;BMP180;32805;53.556;9.944;2022-12-29T01:01:56;99783.00;;;9.00
17142;BMP180;32805;53.556;9.944;2022-12-29T01:04:25;99776.00;;;9.10
17142;BMP180;32805;53.556;9.944;2022-12-29T01:06:53;99778.00;;;9.00
17142;BMP180;32805;53.556;9.944;2022-12-29T01:09:21;99757.00;;;9.00
17142;BMP180;32805;53.556;9.944;2022-12-29T01:12:09;99757.00;;;9.00
17142;BMP180;32805;53.556;9.944;2022-12-29T01:14:37;99773.00;;;9.00
17142;BMP180;32805;53.556;9.944;2022-12-29T01:17:05;99760.00;;;9.10
17142;BMP180;32805;53.556;9.944;2022-12-29T01:19:33;99762.00;;;9.10
17142;BMP180;32805;53.556;9.944;2022-12-29T01:22:01;99762.00;;;9.20
17142;BMP180;32805;53.556;9.944;2022-12-29T01:24:28;99757.00;;;9.20
17142;BMP180;32805;53.556;9.944;2022-12-29T01:26:56;99751.00;;;9.20
17142;BMP180;32805;53.556;9.944;2022-12-29T01:29:25;99748.00;;;9.20
17142;BMP180;32805;53.556;9.944;2022-12-29T01:31:52;99736.00;;;9.20
17142;BMP180;32805;53.556;9.944;2022-12-29T01:34:21;99741.00;;;9.30
17142;BMP180;32805;53.556;9.944;2022-12-29T01:36:49;99738.00;;;9.30
17142;BMP180;32805;53.556;9.944;2022-12-29T01:39:16;99722.00;;;9.20
17142;BMP180;32805;53.556;9.944;2022-12-29T01:41:44;99729.00;;;9.20
17142;BMP180;32805;53.556;9.944;2022-12-29T01:44:54;99720.00;;;9.20
17142;BMP180;32805;53.556;9.944;2022-12-29T01:47:28;99722.00;;;9.30
17142;BMP180;32805;53.556;9.944;2022-12-29T01:50:00;99730.00;;;9.20
17142;BMP180;32805;53.556;9.944;2022-12-29T01:52:30;99719.00;;;9.30
17142;BMP180;32805;53.556;9.944;2022-12-29T01:55:02;99717.00;;;9.30
17142;BMP180;32805;53.556;9.944;2022-12-29T01:57:33;99720.00;;;9.30
17142;BMP180;32805;53.556;9.944;2022-12-29T02:00:06;99713.00;;;9.40
17142;BMP180;32805;53.556;9.944;2022-12-29T02:02:42;99726.00;;;9.30
17142;BMP180;32805;53.556;9.944;2022-12-29T02:05:17;99712.00;;;9.40
17142;BMP180;32805;53.556;9.944;2022-12-29T02:07:48;99708.00;;;9.30
17142;BMP180;32805;53.556;9.944;2022-12-29T02:10:19;99706.00;;;9.30
17142;BMP180;32805;53.556;9.944;2022-12-29T02:12:47;99712.00;;;9.40
17142;BMP180;32805;53.556;9.944;2022-12-29T02:15:17;99703.00;;;9.30
17142;BMP180;32805;53.556;9.944;2022-12-29T02:17:57;99701.00;;;9.30
17142;BMP180;32805;53.556;9.944;2022-12-29T02:20:56;99684.00;;;9.40
17142;BMP180;32805;53.556;9.944;2022-12-29T02:23:50;99683.00;;;9.40
17142;BMP180;32805;53.556;9.944;2022-12-29T02:26:39;99694.00;;;9.40
17142;BMP180;32805;53.556;9.944;2022-12-29T02:32:27;99680.00;;;9.40
17142;BMP180;32805;53.556;9.944;2022-12-29T02:35:01;99673.00;;;9.40
17142;BMP180;32805;53.556;9.944;2022-12-29T02:37:39;99684.00;;;9.50
17142;BMP180;32805;53.556;9.944;2022-12-29T02:40:17;99668.00;;;9.50
17142;BMP180;32805;53.556;9.944;2022-12-29T02:42:55;99668.00;;;9.50
17142;BMP180;32805;53.556;9.944;2022-12-29T02:45:30;99662.00;;;9.50
17142;BMP180;32805;53.556;9.944;2022-12-29T02:48:04;99659.00;;;9.50
17142;BMP180;32805;53.556;9.944;2022-12-29T02:50:38;99658.00;;;9.50
17142;BMP180;32805;53.556;9.944;2022-12-29T02:53:08;99659.00;;;9.50
17142;BMP180;32805;53.556;9.944;2022-12-29T02:55:36;99655.00;;;9.50
17142;BMP180;32805;53.556;9.944;2022-12-29T02:58:21;99662.00;;;9.60
17142;BMP180;32805;53.556;9.944;2022-12-29T03:01:00;99644.00;;;9.60
17142;BMP180;32805;53.556;9.944;2022-12-29T03:03:44;99653.00;;;9.60
17142;BMP180;32805;53.556;9.944;2022-12-29T03:06:29;99652.00;;;9.60
17142;BMP180;32805;53.556;9.944;2022-12-29T03:09:03;99656.00;;;9.50
17142;BMP180;32805;53.556;9.944;2022-12-29T03:11:50;99647.00;;;9.50
17142;BMP180;32805;53.556;9.944;2022-12-29T03:14:48;99654.00;;;9.50
17142;BMP180;32805;53.556;9.944;2022-12-29T03:17:42;99640.00;;;9.60
17142;BMP180;32805;53.556;9.944;2022-12-29T03:20:18;99633.00;;;9.40
17142;BMP180;32805;53.556;9.944;2022-12-29T03:22:53;99633.00;;;9.50
17142;BMP180;32805;53.556;9.944;2022-12-29T03:25:26;99637.00;;;9.50
17142;BMP180;32805;53.556;9.944;2022-12-29T03:27:59;99626.00;;;9.50
17142;BMP180;32805;53.556;9.944;2022-12-29T03:30:32;99617.00;;;9.50
17142;BMP180;32805;53.556;9.944;2022-12-29T03:33:04;99626.00;;;9.50
17142;BMP180;32805;53.556;9.944;2022-12-29T03:35:35;99606.00;;;9.50
17142;BMP180;32805;53.556;9.944;2022-12-29T03:38:11;99614.00;;;9.60
17142;BMP180;32805;53.556;9.944;2022-12-29T03:40:42;99618.00;;;9.70
17142;BMP180;32805;53.556;9.944;2022-12-29T03:43:11;99611.00;;;9.70
17142;BMP180;32805;53.556;9.944;2022-12-29T03:45:40;99616.00;;;9.70
17142;BMP180;32805;53.556;9.944;2022-12-29T03:48:08;99614.00;;;9.60
17142;BMP180;32805;53.556;9.944;2022-12-29T03:50:41;99615.00;;;9.70
17142;BMP180;32805;53.556;9.944;2022-12-29T03:53:08;99614.00;;;9.70
17142;BMP180;32805;53.556;9.944;2022-12-29T03:55:37;99598.00;;;9.70
17142;BMP180;32805;53.556;9.944;2022-12-29T03:58:05;99596.00;;;9.70
17142;BMP180;32805;53.556;9.944;2022-12-29T04:00:59;99606.00;;;9.60
17142;BMP180;32805;53.556;9.944;2022-12-29T04:03:30;99587.00;;;9.60
17142;BMP180;32805;53.556;9.944;2022-12-29T04:05:59;99582.00;;;9.60
17142;BMP180;32805;53.556;9.944;2022-12-29T04:08:32;99577.00;;;9.60
17142;BMP180;32805;53.556;9.944;2022-12-29T04:11:00;99579.00;;;9.60
17142;BMP180;32805;53.556;9.944;2022-12-29T04:13:28;99581.00;;;9.70
17142;BMP180;32805;53.556;9.944;2022-12-29T04:15:55;99579.00;;;9.60
17142;BMP180;32805;53.556;9.944;2022-12-29T04:18:23;99581.00;;;9.70
17142;BMP180;32805;53.556;9.944;2022-12-29T04:20:51;99571.00;;;9.60
17142;BMP180;32805;53.556;9.944;2022-12-29T04:23:34;99577.00;;;9.70
17142;BMP180;32805;53.556;9.944;2022-12-29T04:26:06;99582.00;;;9.70
17142;BMP180;32805;53.556;9.944;2022-12-29T04:28:45;99570.00;;;9.80
17142;BMP180;32805;53.556;9.944;2022-12-29T04:31:41;99565.00;;;9.80
17142;BMP180;32805;53.556;9.944;2022-12-29T04:34:10;99550.00;;;9.80
17142;BMP180;32805;53.556;9.944;2022-12-29T04:36:37;99552.00;;;9.80
17142;BMP180;32805;53.556;9.944;2022-12-29T04:39:08;99553.00;;;9.70
17142;BMP180;32805;53.556;9.944;2022-12-29T04:41:37;99561.00;;;9.80
17142;BMP180;32805;53.556;9.944;2022-12-29T04:44:07;99542.00;;;9.80
17142;BMP180;32805;53.556;9.944;2022-12-29T04:46:37;99548.00;;;9.90
17142;BMP180;32805;53.556;9.944;2022-12-29T04:49:30;99549.00;;;9.80
17142;BMP180;32805;53.556;9.944;2022-12-29T04:52:20;99548.00;;;9.80
17142;BMP180;32805;53.556;9.944;2022-12-29T04:54:49;99543.00;;;9.80
17142;BMP180;32805;53.556;9.944;2022-12-29T04:57:19;99547.00;;;10.00
17142;BMP180;32805;53.556;9.944;2022-12-29T04:59:51;99535.00;;;9.90
17142;BMP180;32805;53.556;9.944;2022-12-29T05:02:19;99518.00;;;9.90
17142;BMP180;32805;53.556;9.944;2022-12-29T05:04:49;99533.00;;;10.00
17142;BMP180;32805;53.556;9.944;2022-12-29T05:07:17;99534.00;;;10.00
17142;BMP180;32805;53.556;9.944;2022-12-29T05:09:44;99533.00;;;10.00
17142;BMP180;32805;53.556;9.944;2022-12-29T05:12:13;99523.00;;;10.00
17142;BMP180;32805;53.556;9.944;2022-12-29T05:14:52;99529.00;;;9.90
17142;BMP180;32805;53.556;9.944;2022-12-29T05:17:20;99529.00;;;10.00
17142;BMP180;32805;53.556;9.944;2022-12-29T05:19:47;99534.00;;;9.90
17142;BMP180;32805;53.556;9.944;2022-12-29T05:22:15;99530.00;;;10.00
17142;BMP180;32805;53.556;9.944;2022-12-29T05:24:44;99531.00;;;10.00
17142;BMP180;32805;53.556;9.944;2022-12-29T05:27:11;99538.00;;;10.10
17142;BMP180;32805;53.556;9.944;2022-12-29T05:30:16;99536.00;;;10.00
17142;BMP180;32805;53.556;9.944;2022-12-29T05:32:44;99534.00;;;10.10
17142;BMP180;32805;53.556;9.944;2022-12-29T05:35:12;99526.00;;;10.00
17142;BMP180;32805;53.556;9.944;2022-12-29T05:37:40;99528.00;;;10.00
17142;BMP180;32805;53.556;9.944;2022-12-29T05:40:08;99534.00;;;10.00
17142;BMP180;32805;53.556;9.944;2022-12-29T05:42:36;99545.00;;;10.00
17142;BMP180;32805;53.556;9.944;2022-12-29T05:45:33;99556.00;;;10.00
17142;BMP180;32805;53.556;9.944;2022-12-29T05:48:23;99534.00;;;10.10
17142;BMP180;32805;53.556;9.944;2022-12-29T05:51:09;99536.00;;;10.10
17142;BMP180;32805;53.556;9.944;2022-12-29T05:53:45;99533.00;;;10.10
17142;BMP180;32805;53.556;9.944;2022-12-29T05:56:14;99538.00;;;10.10
17142;BMP180;32805;53.556;9.944;2022-12-29T05:58:44;99539.00;;;10.10
17142;BMP180;32805;53.556;9.944;2022-12-29T06:01:13;99537.00;;;10.10
17142;BMP180;32805;53.556;9.944;2022-12-29T06:03:41;99541.00;;;10.10
17142;BMP180;32805;53.556;9.944;2022-12-29T06:06:14;99541.00;;;10.10
17142;BMP180;32805;53.556;9.944;2022-12-29T06:08:42;99543.00;;;10.10
17142;BMP180;32805;53.556;9.944;2022-12-29T06:11:10;99543.00;;;10.10
17142;BMP180;32805;53.556;9.944;2022-12-29T06:13:40;99538.00;;;10.20
17142;BMP180;32805;53.556;9.944;2022-12-29T06:16:09;99553.00;;;10.30
17142;BMP180;32805;53.556;9.944;2022-12-29T06:18:39;99549.00;;;10.20
17142;BMP180;32805;53.556;9.944;2022-12-29T06:21:07;99530.00;;;10.20
17142;BMP180;32805;53.556;9.944;2022-12-29T06:23:35;99534.00;;;10.20
17142;BMP180;32805;53.556;9.944;2022-12-29T06:26:03;99546.00;;;10.20
17142;BMP180;32805;53.556;9.944;2022-12-29T06:28:31;99535.00;;;10.20
17142;BMP180;32805;53.556;9.944;2022-12-29T06:31:03;99549.00;;;10.10
17142;BMP180;32805;53.556;9.944;2022-12-29T06:33:30;99534.00;;;10.00
17142;BMP180;32805;53.556;9.944;2022-12-29T06:35:59;99544.00;;;10.00
17142;BMP180;32805;53.556;9.944;2022-12-29T06:38:29;99546.00;;;10.00
17142;BMP180;32805;53.556;9.944;2022-12-29T06:40:58;99563.00;;;10.00
17142;BMP180;32805;53.556;9.944;2022-12-29T06:43:47;99554.00;;;10.00
17142;BMP180;32805;53.556;9.944;2022-12-29T06:46:33;99545.00;;;9.90
17142;BMP180;32805;53.556;9.944;2022-12-29T06:49:01;99531.00;;;9.90
17142;BMP180;32805;53.556;9.944;2022-12-29T06:51:30;99541.00;;;9.90
17142;BMP180;32805;53.556;9.944;2022-12-29T06:53:58;99535.00;;;9.90
17142;BMP180;32805;53.556;9.944;2022-12-29T06:56:26;99526.00;;;9.90
17142;BMP180;32805;53.556;9.944;2022-12-29T06:58:53;99532.00;;;9.90
17142;BMP180;32805;53.556;9.944;2022-12-29T07:01:21;99535.00;;;9.90
17142;BMP180;32805;53.556;9.944;2022-12-29T07:03:49;99534.00;;;9.90
17142;BMP180;32805;53.556;9.944;2022-12-29T07:06:16;99535.00;;;9.90
17142;BMP180;32805;53.556;9.944;2022-12-29T07:08:45;99526.00;;;9.90
17142;BMP180;32805;53.556;9.944;2022-12-29T07:11:13;99534.00;;;10.00
17142;BMP180;32805;53.556;9.944;2022-12-29T07:13:42;99539.00;;;10.00
17142;BMP180;32805;53.556;9.944;2022-12-29T07:16:10;99537.00;;;9.90
17142;BMP180;32805;53.556;9.944;2022-12-29T07:18:38;99543.00;;;9.90
17142;BMP180;32805;53.556;9.944;2022-12-29T07:21:06;99538.00;;;9.90
17142;BMP180;32805;53.556;9.944;2022-12-29T07:23:33;99545.00;;;9.90
17142;BMP180;32805;53.556;9.944;2022-12-29T07:26:04;99543.00;;;9.80
17142;BMP180;32805;53.556;9.944;2022-12-29T07:28:32;99543.00;;;9.90
17142;BMP180;32805;53.556;9.944;2022-12-29T07:31:01;99552.00;;;9.90
17142;BMP180;32805;53.556;9.944;2022-12-29T07:33:29;99548.00;;;9.90
17142;BMP180;32805;53.556;9.944;2022-12-29T07:35:58;99549.00;;;9.90
17142;BMP180;32805;53.556;9.944;2022-12-29T07:38:26;99568.00;;;9.90
17142;BMP180;32805;53.556;9.944;2022-12-29T07:40:56;99554.00;;;9.90
17142;BMP180;32805;53.556;9.944;2022-12-29T07:43:26;99555.00;;;9.90
17142;BMP180;32805;53.556;9.944;2022-12-29T07:46:14;99551.00;;;10.00
17142;BMP180;32805;53.556;9.944;2022-12-29T07:49:01;99571.00;;;9.90
17142;BMP180;32805;53.556;9.944;2022-12-29T07:51:29;99574.00;;;10.00
17142;BMP180;32805;53.556;9.944;2022-12-29T07:53:57;99562.00;;;10.00
17142;BMP180;32805;53.556;9.944;2022-12-29T07:56:27;99561.00;;;9.90
17142;BMP180;32805;53.556;9.944;2022-12-29T07:58:56;99556.00;;;9.90
17142;BMP180;32805;53.556;9.944;2022-12-29T08:01:24;99561.00;;;9.90
17142;BMP180;32805;53.556;9.944;2022-12-29T08:03:52;99567.00;;;9.90
17142;BMP180;32805;53.556;9.944;2022-12-29T08:06:23;99575.00;;;9.90
17142;BMP180;32805;53.556;9.944;2022-12-29T08:08:50;99573.00;;;9.90
17142;BMP180;32805;53.556;9.944;2022-12-29T08:11:18;99580.00;;;9.80
17142;BMP180;32805;53.556;9.944;2022-12-29T08:13:46;99574.00;;;9.80
17142;BMP180;32805;53.556;9.944;2022-12-29T08:16:15;99569.00;;;9.80
17142;BMP180;32805;53.556;9.944;2022-12-29T08:18:43;99585.00;;;9.70
17142;BMP180;32805;53.556;9.944;2022-12-29T08:21:10;99578.00;;;9.70
17142;BMP180;32805;53.556;9.944;2022-12-29T08:23:38;99586.00;;;9.70
17142;BMP180;32805;53.556;9.944;2022-12-29T08:26:06;99580.00;;;9.70
17142;BMP180;32805;53.556;9.944;2022-12-29T08:28:33;99603.00;;;9.60
17142;BMP180;32805;53.556;9.944;2022-12-29T08:31:01;99605.00;;;9.60
17142;BMP180;32805;53.556;9.944;2022-12-29T08:33:31;99610.00;;;9.70
17142;BMP180;32805;53.556;9.944;2022-12-29T08:36:00;99605.00;;;9.80
17142;BMP180;32805;53.556;9.944;2022-12-29T08:38:28;99609.00;;;9.90
17142;BMP180;32805;53.556;9.944;2022-12-29T08:40:56;99613.00;;;10.00
17142;BMP180;32805;53.556;9.944;2022-12-29T08:43:25;99614.00;;;10.00
17142;BMP180;32805;53.556;9.944;2022-12-29T08:45:52;99627.00;;;10.10
17142;BMP180;32805;53.556;9.944;2022-12-29T08:48:20;99608.00;;;10.10
17142;BMP180;32805;53.556;9.944;2022-12-29T08:50:50;99620.00;;;10.10
17142;BMP180;32805;53.556;9.944;2022-12-29T08:53:18;99612.00;;;10.10
17142;BMP180;32805;53.556;9.944;2022-12-29T08:55:47;99612.00;;;10.10
17142;BMP180;32805;53.556;9.944;2022-12-29T08:58:14;99609.00;;;10.20
17142;BMP180;32805;53.556;9.944;2022-12-29T09:00:43;99616.00;;;10.30
17142;BMP180;32805;53.556;9.944;2022-12-29T09:03:12;99622.00;;;10.20
17142;BMP180;32805;53.556;9.944;2022-12-29T09:05:40;99620.00;;;10.20
17142;BMP180;32805;53.556;9.944;2022-12-29T09:08:09;99630.00;;;10.20
17142;BMP180;32805;53.556;9.944;2022-12-29T09:10:36;99631.00;;;10.20
17142;BMP180;32805;53.556;9.944;2022-12-29T09:13:04;99621.00;;;10.20
17142;BMP180;32805;53.556;9.944;2022-12-29T09:15:32;99640.00;;;10.20
17142;BMP180;32805;53.556;9.944;2022-12-29T09:18:00;99626.00;;;10.30
17142;BMP180;32805;53.556;9.944;2022-12-29T09:20:27;99617.00;;;10.40
17142;BMP180;32805;53.556;9.944;2022-12-29T09:22:55;99614.00;;;10.60
17142;BMP180;32805;53.556;9.944;2022-12-29T09:25:24;99626.00;;;10.70
17142;BMP180;32805;53.556;9.944;2022-12-29T09:27:53;99639.00;;;10.70
17142;BMP180;32805;53.556;9.944;2022-12-29T09:30:22;99632.00;;;10.70
17142;BMP180;32805;53.556;9.944;2022-12-29T09:32:50;99635.00;;;10.70
17142;BMP180;32805;53.556;9.944;2022-12-29T09:35:21;99652.00;;;10.70
17142;BMP180;32805;53.556;9.944;2022-12-29T09:37:49;99658.00;;;10.70
17142;BMP180;32805;53.556;9.944;2022-12-29T09:40:28;99652.00;;;10.70
17142;BMP180;32805;53.556;9.944;2022-12-29T09:43:18;99661.00;;;10.80
17142;BMP180;32805;53.556;9.944;2022-12-29T09:45:57;99667.00;;;10.70
17142;BMP180;32805;53.556;9.944;2022-12-29T09:48:31;99646.00;;;10.60
17142;BMP180;32805;53.556;9.944;2022-12-29T09:51:03;99673.00;;;10.60
17142;BMP180;32805;53.556;9.944;2022-12-29T09:53:36;99665.00;;;10.60
17142;BMP180;32805;53.556;9.944;2022-12-29T09:56:13;99648.00;;;10.60
17142;BMP180;32805;53.556;9.944;2022-12-29T09:58:45;99660.00;;;10.70
17142;BMP180;32805;53.556;9.944;2022-12-29T10:01:23;99648.00;;;10.70
17142;BMP180;32805;53.556;9.944;2022-12-29T10:03:55;99657.00;;;10.90
17142;BMP180;32805;53.556;9.944;2022-12-29T10:06:27;99656.00;;;11.00
17142;BMP180;32805;53.556;9.944;2022-12-29T10:09:02;99667.00;;;11.00
17142;BMP180;32805;53.556;9.944;2022-12-29T10:11:47;99672.00;;;10.90
17142;BMP180;32805;53.556;9.944;2022-12-29T10:14:29;99663.00;;;10.90
17142;BMP180;32805;53.556;9.944;2022-12-29T10:17:09;99658.00;;;11.00
17142;BMP180;32805;53.556;9.944;2022-12-29T10:19:55;99661.00;;;11.10
17142;BMP180;32805;53.556;9.944;2022-12-29T10:22:34;99666.00;;;11.10
17142;BMP180;32805;53.556;9.944;2022-12-29T10:25:12;99659.00;;;11.10
17142;BMP180;32805;53.556;9.944;2022-12-29T10:27:43;99652.00;;;11.10
17142;BMP180;32805;53.556;9.944;2022-12-29T10:30:14;99654.00;;;11.00
17142;BMP180;32805;53.556;9.944;2022-12-29T10:32:45;99671.00;;;11.10
17142;BMP180;32805;53.556;9.944;2022-12-29T10:35:17;99655.00;;;11.00
17142;BMP180;32805;53.556;9.944;2022-12-29T10:37:49;99670.00;;;11.10
17142;BMP180;32805;53.556;9.944;2022-12-29T10:40:23;99648.00;;;11.10
17142;BMP180;32805;53.556;9.944;2022-12-29T10:42:55;99649.00;;;11.20
17142;BMP180;32805;53.556;9.944;2022-12-29T10:45:28;99646.00;;;11.30
17142;BMP180;32805;53.556;9.944;2022-12-29T10:47:59;99641.00;;;11.20
17142;BMP180;32805;53.556;9.944;2022-12-29T10:50:29;99645.00;;;11.20
17142;BMP180;32805;53.556;9.944;2022-12-29T10:53:00;99643.00;;;11.20
17142;BMP180;32805;53.556;9.944;2022-12-29T10:55:32;99649.00;;;11.10
17142;BMP180;32805;53.556;9.944;2022-12-29T10:58:04;99636.00;;;11.10
17142;BMP180;32805;53.556;9.944;2022-12-29T11:00:33;99641.00;;;11.00
17142;BMP180;32805;53.556;9.944;2022-12-29T11:03:21;99645.00;;;11.00
17142;BMP180;32805;53.556;9.944;2022-12-29T11:06:02;99644.00;;;11.00
17142;BMP180;32805;53.556;9.944;2022-12-29T11:08:36;99651.00;;;11.00
17142;BMP180;32805;53.556;9.944;2022-12-29T11:11:07;99650.00;;;11.00
17142;BMP180;32805;53.556;9.944;2022-12-29T11:13:48;99638.00;;;11.00
17142;BMP180;32805;53.556;9.944;2022-12-29T11:16:27;99648.00;;;10.90
17142;BMP180;32805;53.556;9.944;2022-12-29T11:18:57;99648.00;;;10.80
17142;BMP180;32805;53.556;9.944;2022-12-29T11:21:31;99652.00;;;10.80
17142;BMP180;32805;53.556;9.944;2022-12-29T11:24:02;99647.00;;;10.80
17142;BMP180;32805;53.556;9.944;2022-12-29T11:26:32;99652.00;;;10.90
17142;BMP180;32805;53.556;9.944;2022-12-29T11:29:24;99649.00;;;10.90
17142;BMP180;32805;53.556;9.944;2022-12-29T11:31:53;99648.00;;;11.10
17142;BMP180;32805;53.556;9.944;2022-12-29T11:34:24;99633.00;;;11.10
17142;BMP180;32805;53.556;9.944;2022-12-29T11:36:57;99633.00;;;11.10
17142;BMP180;32805;53.556;9.944;2022-12-29T11:39:32;99642.00;;;11.10
17142;BMP180;32805;53.556;9.944;2022-12-29T11:42:01;99623.00;;;11.10
17142;BMP180;32805;53.556;9.944;2022-12-29T11:44:36;99653.00;;;11.10
17142;BMP180;32805;53.556;9.944;2022-12-29T11:47:06;99658.00;;;11.20
17142;BMP180;32805;53.556;9.944;2022-12-29T11:49:36;99638.00;;;11.20
17142;BMP180;32805;53.556;9.944;2022-12-29T11:52:04;99649.00;;;11.20
17142;BMP180;32805;53.556;9.944;2022-12-29T11:54:34;99642.00;;;11.10
17142;BMP180;32805;53.556;9.944;2022-12-29T11:57:12;99650.00;;;11.00
17142;BMP180;32805;53.556;9.944;2022-12-29T11:59:43;99662.00;;;11.10
17142;BMP180;32805;53.556;9.944;2022-12-29T12:02:40;99666.00;;;11.20
17142;BMP180;32805;53.556;9.944;2022-12-29T12:05:14;99652.00;;;11.10
17142;BMP180;32805;53.556;9.944;2022-12-29T12:07:46;99670.00;;;11.10
17142;BMP180;32805;53.556;9.944;2022-12-29T12:10:21;99667.00;;;11.10
17142;BMP180;32805;53.556;9.944;2022-12-29T12:12:58;99674.00;;;11.00
17142;BMP180;32805;53.556;9.944;2022-12-29T12:15:35;99647.00;;;11.10
17142;BMP180;32805;53.556;9.944;2022-12-29T12:18:16;99683.00;;;11.00
17142;BMP180;32805;53.556;9.944;2022-12-29T12:20:49;99647.00;;;11.00
17142;BMP180;32805;53.556;9.944;2022-12-29T12:23:40;99661.00;;;10.90
17142;BMP180;32805;53.556;9.944;2022-12-29T12:26:12;99629.00;;;11.00
17142;BMP180;32805;53.556;9.944;2022-12-29T12:28:48;99653.00;;;11.00
17142;BMP180;32805;53.556;9.944;2022-12-29T12:31:27;99652.00;;;11.00
17142;BMP180;32805;53.556;9.944;2022-12-29T12:34:06;99659.00;;;10.80
17142;BMP180;32805;53.556;9.944;2022-12-29T12:36:48;99669.00;;;10.90
17142;BMP180;32805;53.556;9.944;2022-12-29T12:39:26;99669.00;;;10.90
17142;BMP180;32805;53.556;9.944;2022-12-29T12:42:06;99666.00;;;10.80
17142;BMP180;32805;53.556;9.944;2022-12-29T12:44:48;99649.00;;;10.80
17142;BMP180;32805;53.556;9.944;2022-12-29T12:47:33;99668.00;;;10.80
17142;BMP180;32805;53.556;9.944;2022-12-29T12:50:24;99674.00;;;10.80
17142;BMP180;32805;53.556;9.944;2022-12-29T12:53:14;99636.00;;;10.80
17142;BMP180;32805;53.556;9.944;2022-12-29T12:56:00;99676.00;;;10.80
17142;BMP180;32805;53.556;9.944;2022-12-29T12:58:36;99625.00;;;10.80
17142;BMP180;32805;53.556;9.944;2022-12-29T13:01:18;99656.00;;;10.80
17142;BMP180;32805;53.556;9.944;2022-12-29T13:04:03;99668.00;;;10.80
17142;BMP180;32805;53.556;9.944;2022-12-29T13:06:38;99687.00;;;10.80
17142;BMP180;32805;53.556;9.944;2022-12-29T13:09:27;99668.00;;;10.80
17142;BMP180;32805;53.556;9.944;2022-12-29T13:12:08;99672.00;;;10.70
17142;BMP180;32805;53.556;9.944;2022-12-29T13:14:45;99684.00;;;10.80
17142;BMP180;32805;53.556;9.944;2022-12-29T13:17:18;99699.00;;;10.80
17142;BMP180;32805;53.556;9.944;2022-12-29T13:19:54;99694.00;;;10.70
17142;BMP180;32805;53.556;9.944;2022-12-29T13:22:28;99713.00;;;10.60
17142;BMP180;32805;53.556;9.944;2022-12-29T13:25:15;99691.00;;;10.50
17142;BMP180;32805;53.556;9.944;2022-12-29T13:27:51;99721.00;;;10.30
17142;BMP180;32805;53.556;9.944;2022-12-29T13:30:22;99725.00;;;10.20
17142;BMP180;32805;53.556;9.944;2022-12-29T13:32:56;99729.00;;;10.10
17142;BMP180;32805;53.556;9.944;2022-12-29T13:35:42;99733.00;;;10.00
17142;BMP180;32805;53.556;9.944;2022-12-29T13:38:14;99737.00;;;10.00
17142;BMP180;32805;53.556;9.944;2022-12-29T13:40:48;99734.00;;;9.90
17142;BMP180;32805;53.556;9.944;2022-12-29T13:43:17;99749.00;;;9.90
17142;BMP180;32805;53.556;9.944;2022-12-29T13:45:53;99773.00;;;9.90
17142;BMP180;32805;53.556;9.944;2022-12-29T13:48:29;99762.00;;;9.80
17142;BMP180;32805;53.556;9.944;2022-12-29T13:51:00;99778.00;;;9.70
17142;BMP180;32805;53.556;9.944;2022-12-29T13:53:35;99770.00;;;9.70
17142;BMP180;32805;53.556;9.944;2022-12-29T13:56:06;99783.00;;;9.70
17142;BMP180;32805;53.556;9.944;2022-12-29T13:58:40;99771.00;;;9.70
17142;BMP180;32805;53.556;9.944;2022-12-29T14:01:14;99790.00;;;9.80
17142;BMP180;32805;53.556;9.944;2022-12-29T14:03:47;99797.00;;;9.90
17142;BMP180;32805;53.556;9.944;2022-12-29T14:06:22;99840.00;;;9.90
17142;BMP180;32805;53.556;9.944;2022-12-29T14:08:52;99837.00;;;9.50
17142;BMP180;32805;53.556;9.944;2022-12-29T14:11:22;99851.00;;;9.20
17142;BMP180;32805;53.556;9.944;2022-12-29T14:13:52;99853.00;;;8.30
17142;BMP180;32805;53.556;9.944;2022-12-29T14:16:34;99865.00;;;7.90
17142;BMP180;32805;53.556;9.944;2022-12-29T14:19:11;99899.00;;;7.80
17142;BMP180;32805;53.556;9.944;2022-12-29T14:21:50;99875.00;;;7.70
17142;BMP180;32805;53.556;9.944;2022-12-29T14:24:43;99867.00;;;7.70
17142;BMP180;32805;53.556;9.944;2022-12-29T14:27:43;99882.00;;;7.60
17142;BMP180;32805;53.556;9.944;2022-12-29T14:33:27;99878.00;;;7.70
17142;BMP180;32805;53.556;9.944;2022-12-29T14:35:55;99893.00;;;7.70
17142;BMP180;32805;53.556;9.944;2022-12-29T14:38:30;99893.00;;;7.70
17142;BMP180;32805;53.556;9.944;2022-12-29T14:41:17;99912.00;;;7.70
17142;BMP180;32805;53.556;9.944;2022-12-29T14:43:59;99914.00;;;7.70
17142;BMP180;32805;53.556;9.944;2022-12-29T14:46:43;99903.00;;;7.80
17142;BMP180;32805;53.556;9.944;2022-12-29T14:49:16;99901.00;;;7.70
17142;BMP180;32805;53.556;9.944;2022-12-29T14:51:46;99916.00;;;7.70
17142;BMP180;32805;53.556;9.944;2022-12-29T14:54:53;99918.00;;;7.70
17142;BMP180;32805;53.556;9.944;2022-12-29T14:57:25;99920.00;;;7.70
17142;BMP180;32805;53.556;9.944;2022-12-29T15:00:04;99919.00;;;7.70
17142;BMP180;32805;53.556;9.944;2022-12-29T15:02:36;99926.00;;;7.70